Time;durP1;ratioP1;P1;durP2;ratioP2;P2;SDS_P1;SDS_P2;PMS_P1;PMS_P2;Temp;Humidity;BMP_temperature;BMP_pressure;BME280_temperature;BME280_humidity;BME280_pressure;Samples;Min_cycle;Max_cycle;Signal;HPM_P1;HPM_P2
2023/08/04 00:02:00;;;;;;;3.13;1.40;;;;;;;15.46;100.00;155332.81;5018380;28;20463;-80
2023/08/04 00:04:26;;;;;;;1.10;0.87;;;;;;;15.40;100.00;155317.22;5045797;28;20446;-79
2023/08/04 00:06:53;;;;;;;1.33;0.90;;;;;;;15.38;100.00;155311.97;5039446;28;20481;-80
2023/08/04 00:09:19;;;;;;;1.60;1.00;;;;;;;15.32;100.00;155296.41;5038891;28;20524;-80
2023/08/04 00:11:46;;;;;;;2.47;1.67;;;;;;;15.29;100.00;155288.63;5056406;28;20462;-80
2023/08/04 00:14:13;;;;;;;2.90;1.20;;;;;;;15.28;100.00;155286.00;5047276;28;20438;-80
2023/08/04 00:16:41;;;;;;;1.67;1.10;;;;;;;15.24;100.00;155276.94;5022227;28;20442;-80
2023/08/04 00:19:08;;;;;;;1.37;1.07;;;;;;;15.23;100.00;155273.00;5045201;28;21008;-80
2023/08/04 00:21:35;;;;;;;1.43;1.27;;;;;;;15.18;100.00;155261.31;5018528;28;20463;-79
2023/08/04 00:24:01;;;;;;;1.50;1.27;;;;;;;15.23;100.00;155274.31;5063098;28;20450;-80
2023/08/04 00:26:28;;;;;;;1.63;1.30;;;;;;;15.20;100.00;155265.19;5017986;28;20492;-79
2023/08/04 00:28:54;;;;;;;1.10;0.77;;;;;;;15.19;100.00;155262.63;5049312;28;20458;-80
2023/08/04 00:31:21;;;;;;;1.70;1.17;;;;;;;15.19;100.00;155262.63;5060082;28;20450;-80
2023/08/04 00:33:49;;;;;;;1.50;1.10;;;;;;;15.15;100.00;155252.22;5055765;28;20493;-80
2023/08/04 00:36:16;;;;;;;1.47;1.17;;;;;;;15.14;100.00;155249.66;5048075;28;20450;-80
2023/08/04 00:38:42;;;;;;;1.63;1.30;;;;;;;15.12;100.00;155244.41;5029158;28;20829;-79
2023/08/04 00:41:10;;;;;;;1.20;0.90;;;;;;;15.12;100.00;155245.72;5045367;28;21116;-80
2023/08/04 00:43:37;;;;;;;2.10;1.13;;;;;;;15.07;100.00;155231.41;5046527;28;20873;-79
2023/08/04 00:46:04;;;;;;;1.73;1.20;;;;;;;15.07;100.00;155231.41;5022929;28;20563;-79
2023/08/04 00:48:30;;;;;;;2.80;1.20;;;;;;;15.03;100.00;155221.03;5028615;28;20455;-79
2023/08/04 00:50:58;;;;;;;1.60;1.07;;;;;;;14.98;100.00;155209.38;5013214;28;20462;-79
2023/08/04 00:53:25;;;;;;;2.13;1.43;;;;;;;14.95;100.00;155200.25;5055214;28;20481;-79
2023/08/04 00:55:51;;;;;;;2.10;1.40;;;;;;;14.94;100.00;155197.66;5055527;28;20756;-80
2023/08/04 00:58:18;;;;;;;1.60;1.30;;;;;;;14.90;100.00;155187.28;5041186;28;20455;-80
2023/08/04 01:00:44;;;;;;;1.63;0.90;;;;;;;14.88;100.00;155183.34;5025667;28;21043;-79
2023/08/04 01:03:11;;;;;;;1.90;1.40;;;;;;;14.89;100.00;155184.66;5053503;28;20458;-79
2023/08/04 01:05:54;;;;;;;1.27;1.00;;;;;;;14.86;100.00;155178.16;5053051;28;20470;-80
2023/08/04 01:08:24;;;;;;;2.60;1.00;;;;;;;14.81;100.00;155163.88;5030731;28;20466;-80
2023/08/04 01:10:55;;;;;;;2.30;1.10;;;;;;;14.81;100.00;155163.88;5035319;28;20476;-79
2023/08/04 01:13:21;;;;;;;1.80;1.07;;;;;;;14.78;100.00;155157.38;5039018;28;21005;-79
2023/08/04 01:15:48;;;;;;;1.97;1.30;;;;;;;14.77;100.00;155154.81;5047610;28;20922;-79
2023/08/04 01:18:19;;;;;;;5.73;1.30;;;;;;;14.80;100.00;155161.31;5030693;28;20452;-80
2023/08/04 01:20:46;;;;;;;2.30;1.17;;;;;;;14.79;100.00;155158.69;5034880;28;20451;-79
2023/08/04 01:23:14;;;;;;;2.00;1.27;;;;;;;14.73;100.00;155143.09;5047332;28;20442;-79
2023/08/04 01:25:41;;;;;;;1.33;1.00;;;;;;;14.72;100.00;155140.50;5028663;28;20457;-80
2023/08/04 01:28:11;;;;;;;1.63;1.20;;;;;;;14.71;100.00;155137.91;5052938;28;20814;-79
2023/08/04 01:30:37;;;;;;;2.10;1.60;;;;;;;14.67;100.00;155127.53;5042705;28;20461;-79
2023/08/04 01:33:04;;;;;;;2.50;1.30;;;;;;;14.63;100.00;155119.72;5031236;28;20476;-79
2023/08/04 01:35:31;;;;;;;1.63;1.10;;;;;;;14.55;100.00;155098.94;5011041;28;20451;-79
2023/08/04 01:37:57;;;;;;;1.67;1.20;;;;;;;14.54;100.00;155095.03;5022776;28;20810;-79
2023/08/04 01:40:25;;;;;;;2.27;1.10;;;;;;;14.56;100.00;155100.25;5053302;28;20456;-79
2023/08/04 01:42:52;;;;;;;1.70;1.30;;;;;;;14.49;100.00;155083.34;5066531;28;21165;-79
2023/08/04 01:45:19;;;;;;;1.87;1.23;;;;;;;14.49;100.00;155082.03;5040301;28;20905;-79
2023/08/04 01:47:48;;;;;;;2.03;1.20;;;;;;;14.44;100.00;155070.38;5045686;28;20472;-79
2023/08/04 01:50:14;;;;;;;1.40;1.00;;;;;;;14.40;100.00;155059.94;5025197;28;20444;-79
2023/08/04 01:52:41;;;;;;;2.50;1.20;;;;;;;14.37;100.00;155052.19;5042157;28;20432;-79
2023/08/04 01:55:08;;;;;;;2.53;1.23;;;;;;;14.38;100.00;155054.75;5026100;28;20985;-79
2023/08/04 01:57:36;;;;;;;1.63;1.10;;;;;;;14.36;100.00;155048.28;5051083;28;20461;-79
2023/08/04 02:00:03;;;;;;;1.33;1.03;;;;;;;14.35;100.00;155045.72;5026756;28;20458;-79
2023/08/04 02:02:38;;;;;;;2.07;1.03;;;;;;;14.38;100.00;155054.75;5063430;28;20767;-80
2023/08/04 02:05:05;;;;;;;2.00;1.03;;;;;;;14.38;100.00;155054.75;5051250;28;20451;-79
2023/08/04 02:07:32;;;;;;;2.10;1.50;;;;;;;14.38;100.00;155053.47;5036043;28;20478;-79
2023/08/04 02:09:58;;;;;;;1.60;1.17;;;;;;;14.37;100.00;155050.88;5045661;28;20573;-79
2023/08/04 02:12:25;;;;;;;1.80;1.23;;;;;;;14.38;100.00;155054.75;5052685;28;20463;-80
2023/08/04 02:14:53;;;;;;;2.50;1.23;;;;;;;14.36;100.00;155049.59;5047185;28;20442;-79
2023/08/04 02:17:20;;;;;;;1.60;1.10;;;;;;;14.36;100.00;155048.28;5061699;28;20771;-79
2023/08/04 02:19:46;;;;;;;1.30;1.10;;;;;;;14.37;100.00;155052.19;5053117;28;20457;-79
2023/08/04 02:22:13;;;;;;;1.50;1.10;;;;;;;14.35;100.00;155045.72;5044319;28;20462;-79
2023/08/04 02:24:40;;;;;;;1.40;1.00;;;;;;;14.33;100.00;155041.78;5056107;28;20862;-79
2023/08/04 02:27:07;;;;;;;1.83;0.93;;;;;;;14.39;100.00;155057.38;5044828;28;20514;-79
2023/08/04 02:29:34;;;;;;;1.70;1.37;;;;;;;14.41;100.00;155062.56;5034118;28;20446;-79
2023/08/04 02:32:02;;;;;;;1.70;1.17;;;;;;;14.39;100.00;155057.38;5048382;28;20560;-79
2023/08/04 02:34:28;;;;;;;1.90;1.70;;;;;;;14.39;100.00;155057.38;5029190;28;20524;-79
2023/08/04 02:36:56;;;;;;;2.23;1.10;;;;;;;14.36;100.00;155049.59;5034686;28;20451;-80
2023/08/04 02:39:22;;;;;;;2.87;1.40;;;;;;;14.33;100.00;155041.78;5051636;28;20443;-79
2023/08/04 02:41:49;;;;;;;2.37;1.30;;;;;;;14.34;100.00;155044.41;5028620;28;20918;-79
2023/08/04 02:44:15;;;;;;;1.80;1.03;;;;;;;14.35;100.00;155046.97;5013664;28;20447;-79
2023/08/04 02:46:42;;;;;;;1.50;1.00;;;;;;;14.35;100.00;155046.97;5040390;28;20461;-79
2023/08/04 02:49:10;;;;;;;1.77;1.07;;;;;;;14.36;100.00;155049.59;5025853;28;20454;-79
2023/08/04 02:51:36;;;;;;;1.60;1.20;;;;;;;14.38;100.00;155054.75;5055440;28;20450;-80
2023/08/04 02:54:03;;;;;;;1.43;1.10;;;;;;;14.40;100.00;155058.69;5028332;28;20450;-80
2023/08/04 02:56:31;;;;;;;1.63;1.10;;;;;;;14.38;100.00;155054.75;5035739;28;20458;-79
2023/08/04 02:58:58;;;;;;;2.23;1.17;;;;;;;14.40;100.00;155059.94;5051845;28;20852;-80
2023/08/04 03:01:25;;;;;;;2.70;1.47;;;;;;;14.43;100.00;155067.75;5045085;28;20478;-80
2023/08/04 03:03:51;;;;;;;1.47;1.10;;;;;;;14.42;100.00;155065.19;5027180;28;20470;-79
2023/08/04 03:06:19;;;;;;;1.60;0.97;;;;;;;14.43;100.00;155066.44;5033736;28;20825;-79
2023/08/04 03:08:46;;;;;;;2.03;1.27;;;;;;;14.43;100.00;155067.75;5065054;28;20515;-79
2023/08/04 03:11:12;;;;;;;2.13;1.20;;;;;;;14.48;100.00;155079.47;5050987;28;20945;-79
2023/08/04 03:13:39;;;;;;;2.50;1.13;;;;;;;14.48;100.00;155080.72;5042481;28;20440;-80
2023/08/04 03:16:06;;;;;;;1.80;1.23;;;;;;;14.48;100.00;155080.72;5054983;28;20462;-79
2023/08/04 03:18:32;;;;;;;1.60;1.20;;;;;;;14.49;100.00;155083.34;5055025;28;20469;-80
2023/08/04 03:21:01;;;;;;;4.10;1.40;;;;;;;14.52;100.00;155089.84;5034834;28;20463;-79
2023/08/04 03:23:29;;;;;;;3.13;1.10;;;;;;;14.55;100.00;155098.94;5031443;28;20460;-80
2023/08/04 03:25:56;;;;;;;1.07;0.80;;;;;;;14.57;100.00;155102.81;5034061;28;20463;-79
2023/08/04 03:28:23;;;;;;;2.03;1.03;;;;;;;14.56;100.00;155101.50;5043809;28;20518;-79
2023/08/04 03:30:49;;;;;;;1.40;1.03;;;;;;;14.62;100.00;155115.81;5050539;28;20459;-79
2023/08/04 03:33:16;;;;;;;2.17;1.10;;;;;;;14.61;100.00;155114.50;5024644;28;20470;-79
2023/08/04 03:35:42;;;;;;;2.33;1.30;;;;;;;14.62;100.00;155117.09;5030649;28;20475;-79
2023/08/04 03:38:11;;;;;;;1.50;1.10;;;;;;;14.62;100.00;155115.81;5046077;28;20475;-79
2023/08/04 03:40:39;;;;;;;1.90;1.50;;;;;;;14.62;100.00;155117.09;5045674;28;20966;-80
2023/08/04 03:43:05;;;;;;;1.57;0.90;;;;;;;14.63;100.00;155119.72;5020283;28;20570;-80
2023/08/04 03:45:32;;;;;;;2.90;1.10;;;;;;;14.64;100.00;155122.28;5041213;28;20452;-80
2023/08/04 03:47:58;;;;;;;1.17;0.83;;;;;;;14.63;100.00;155118.41;5067395;28;20469;-79
2023/08/04 03:50:25;;;;;;;2.73;1.20;;;;;;;14.62;100.00;155117.09;5036308;28;20460;-79
2023/08/04 03:52:52;;;;;;;1.67;1.00;;;;;;;14.66;100.00;155126.22;5039352;28;20451;-79
2023/08/04 03:55:19;;;;;;;2.00;1.10;;;;;;;14.64;100.00;155122.28;5039961;28;20458;-80
2023/08/04 03:57:47;;;;;;;1.63;1.10;;;;;;;14.61;100.00;155114.50;5049660;28;20445;-79
2023/08/04 04:00:13;;;;;;;2.10;1.30;;;;;;;14.59;100.00;155109.31;5048138;28;20447;-79
2023/08/04 04:02:50;;;;;;;1.63;1.30;;;;;;;14.59;100.00;155109.31;5029977;28;20584;-80
2023/08/04 04:05:17;;;;;;;2.27;1.20;;;;;;;14.59;100.00;155108.00;5045490;28;20947;-79
2023/08/04 04:07:44;;;;;;;1.50;1.00;;;;;;;14.60;100.00;155111.94;5051135;28;20470;-80
2023/08/04 04:10:10;;;;;;;1.63;1.27;;;;;;;14.61;100.00;155114.50;5039826;28;20893;-79
2023/08/04 04:12:37;;;;;;;2.13;1.10;;;;;;;14.63;100.00;155119.72;5048695;28;20455;-80
2023/08/04 04:15:06;;;;;;;1.67;1.40;;;;;;;14.60;100.00;155111.94;5015846;28;20451;-77
2023/08/04 04:17:33;;;;;;;1.40;1.07;;;;;;;14.63;100.00;155119.72;5054292;28;20490;-80
2023/08/04 04:19:59;;;;;;;1.80;1.10;;;;;;;14.63;100.00;155119.72;5012257;28;20462;-80
2023/08/04 04:22:26;;;;;;;1.60;1.33;;;;;;;14.63;100.00;155119.72;5036633;28;20461;-79
2023/08/04 04:24:53;;;;;;;1.40;1.03;;;;;;;14.67;100.00;155127.53;5016460;28;20450;-79
2023/08/04 04:27:19;;;;;;;2.03;1.30;;;;;;;14.68;100.00;155130.09;5019525;28;20475;-80
2023/08/04 04:29:46;;;;;;;1.43;0.93;;;;;;;14.68;100.00;155131.41;5019317;28;20451;-80
2023/08/04 04:32:14;;;;;;;1.57;1.00;;;;;;;14.64;100.00;155122.28;5033530;28;20490;-80
2023/08/04 04:34:41;;;;;;;1.80;1.10;;;;;;;14.69;100.00;155132.72;5045879;28;20484;-80
2023/08/04 04:37:08;;;;;;;4.03;1.20;;;;;;;14.72;100.00;155140.50;5046888;28;20459;-80
2023/08/04 04:39:34;;;;;;;2.13;0.90;;;;;;;14.71;100.00;155137.91;5037306;28;20871;-80
2023/08/04 04:42:01;;;;;;;2.00;1.50;;;;;;;14.70;100.00;155135.28;5040289;28;20463;-79
2023/08/04 04:44:27;;;;;;;2.63;1.07;;;;;;;14.72;100.00;155140.50;5026096;28;20454;-80
2023/08/04 04:46:54;;;;;;;1.60;1.20;;;;;;;14.73;100.00;155144.38;5046603;28;20609;-80
2023/08/04 04:49:22;;;;;;;1.73;1.30;;;;;;;14.76;100.00;155152.19;5050086;28;20487;-79
2023/08/04 04:51:48;;;;;;;1.80;0.87;;;;;;;14.80;100.00;155161.31;5032215;28;20463;-79
2023/08/04 04:54:15;;;;;;;3.20;1.40;;;;;;;14.86;100.00;155178.16;5039284;28;20468;-80
2023/08/04 04:56:41;;;;;;;1.50;0.93;;;;;;;14.89;100.00;155185.97;5049088;28;20454;-79
2023/08/04 04:59:08;;;;;;;1.57;1.20;;;;;;;14.95;100.00;155200.25;5039146;28;20462;-80
2023/08/04 05:01:34;;;;;;;1.93;1.57;;;;;;;15.04;100.00;155223.63;5044271;28;20455;-80
2023/08/04 05:04:01;;;;;;;2.60;1.30;;;;;;;15.11;100.00;155241.84;5050444;28;20458;-80
2023/08/04 05:06:29;;;;;;;2.37;1.40;;;;;;;15.13;100.00;155247.03;5047058;28;20781;-79
2023/08/04 05:08:55;;;;;;;1.83;1.10;;;;;;;15.14;100.00;155249.66;5058050;28;20992;-79
2023/08/04 05:11:22;;;;;;;2.80;1.27;;;;;;;15.13;100.00;155247.03;5043874;28;20463;-79
2023/08/04 05:13:49;;;;;;;1.50;1.37;;;;;;;15.17;100.00;155257.41;5058065;28;20458;-79
2023/08/04 05:16:15;;;;;;;1.83;1.10;;;;;;;15.23;100.00;155274.31;5034085;28;20463;-79
2023/08/04 05:18:42;;;;;;;1.40;1.10;;;;;;;15.20;100.00;155265.19;5042474;28;20797;-79
2023/08/04 05:21:08;;;;;;;1.70;1.37;;;;;;;15.30;100.00;155291.22;5042918;28;20458;-79
2023/08/04 05:23:36;;;;;;;2.10;1.50;;;;;;;15.48;100.00;155338.06;5042622;28;20476;-78
2023/08/04 05:26:03;;;;;;;2.20;1.40;;;;;;;15.69;100.00;155392.66;5042319;28;21222;-78
2023/08/04 05:28:32;;;;;;;3.00;1.40;;;;;;;15.80;100.00;155421.25;5023334;28;20511;-78
2023/08/04 05:31:00;;;;;;;2.20;1.43;;;;;;;15.93;100.00;155452.44;5043631;28;20450;-78
2023/08/04 05:33:28;;;;;;;2.50;1.40;;;;;;;15.98;100.00;155466.75;5043046;28;20482;-78
2023/08/04 05:35:55;;;;;;;2.37;1.50;;;;;;;15.96;100.00;155460.25;5044083;28;20454;-78
2023/08/04 05:38:21;;;;;;;1.93;1.37;;;;;;;15.97;100.00;155462.81;5046524;28;20842;-77
2023/08/04 05:40:50;;;;;;;1.93;1.10;;;;;;;15.98;100.00;155466.75;5045385;28;20459;-78
2023/08/04 05:43:17;;;;;;;5.27;1.50;;;;;;;16.02;100.00;155477.13;5043944;28;20454;-78
2023/08/04 05:45:47;;;;;;;1.80;1.37;;;;;;;16.09;100.00;155495.38;5025426;28;20450;-78
2023/08/04 05:48:13;;;;;;;1.73;1.60;;;;;;;16.09;100.00;155494.06;5058472;28;20506;-78
2023/08/04 05:50:40;;;;;;;2.10;1.40;;;;;;;16.16;100.00;155512.25;5044020;28;20588;-78
2023/08/04 05:53:07;;;;;;;3.20;1.27;;;;;;;16.25;100.00;155535.66;5042505;28;20898;-78
2023/08/04 05:55:34;;;;;;;3.67;1.57;;;;;;;16.34;100.00;155559.06;5042720;28;20473;-79
2023/08/04 05:58:03;;;;;;;1.50;1.30;;;;;;;16.43;100.00;155582.47;5043183;28;20454;-79
2023/08/04 06:00:30;;;;;;;1.80;1.50;;;;;;;16.47;100.00;155592.88;5033080;28;20455;-78
2023/08/04 06:02:57;;;;;;;2.00;0.90;;;;;;;16.56;100.00;155616.34;5041069;28;20489;-79
2023/08/04 06:05:27;;;;;;;1.40;1.20;;;;;;;16.73;100.00;155660.53;5038791;28;20805;-78
2023/08/04 06:07:54;;;;;;;3.20;1.37;;;;;;;16.95;99.05;155716.50;5039020;28;20996;-78
2023/08/04 06:10:20;;;;;;;2.77;1.30;;;;;;;17.19;99.62;155778.97;5028398;28;20461;-78
2023/08/04 06:12:48;;;;;;;1.70;1.10;;;;;;;17.29;99.36;155803.72;5012080;28;20562;-78
2023/08/04 06:15:16;;;;;;;2.60;1.43;;;;;;;17.43;98.95;155840.13;5045407;28;20534;-78
2023/08/04 06:17:43;;;;;;;1.80;1.10;;;;;;;17.58;96.39;155880.53;5029011;28;20458;-79
2023/08/04 06:20:13;;;;;;;1.67;1.20;;;;;;;17.91;96.50;155965.16;5026657;28;20458;-79
2023/08/04 06:22:40;;;;;;;1.93;1.10;;;;;;;18.16;95.71;156030.25;5039784;28;20473;-78
2023/08/04 06:25:07;;;;;;;2.00;1.13;;;;;;;18.22;93.07;156045.91;5048055;28;20451;-78
2023/08/04 06:27:34;;;;;;;2.37;1.30;;;;;;;18.27;90.26;156056.34;5045396;28;20498;-78
2023/08/04 06:30:01;;;;;;;1.27;1.00;;;;;;;18.23;93.68;156048.53;5046820;28;20454;-78
2023/08/04 06:32:30;;;;;;;1.90;0.87;;;;;;;18.06;90.03;156004.22;5059319;28;20505;-78
2023/08/04 06:34:56;;;;;;;2.10;1.30;;;;;;;18.02;85.62;155993.81;5027631;28;20480;-78
2023/08/04 06:37:23;;;;;;;1.97;1.10;;;;;;;18.03;84.96;155996.41;5042250;28;20605;-78
2023/08/04 06:39:50;;;;;;;2.00;1.20;;;;;;;18.11;87.00;156015.94;5042219;28;20452;-78
2023/08/04 06:42:17;;;;;;;1.90;1.40;;;;;;;18.01;87.34;155991.22;5027016;28;20546;-78
2023/08/04 06:44:44;;;;;;;2.17;1.20;;;;;;;18.06;88.25;156004.22;5025285;28;20456;-78
2023/08/04 06:47:10;;;;;;;2.80;1.17;;;;;;;18.05;84.59;156001.66;5022318;28;20517;-77
2023/08/04 06:49:38;;;;;;;1.80;1.00;;;;;;;18.06;84.27;156004.22;5026944;28;20510;-78
2023/08/04 06:52:06;;;;;;;2.97;1.20;;;;;;;18.04;85.49;155999.03;5059116;28;20551;-78
2023/08/04 06:54:32;;;;;;;1.60;0.90;;;;;;;18.06;86.31;156004.22;5058883;28;20455;-78
2023/08/04 06:56:59;;;;;;;4.60;1.50;;;;;;;18.07;85.41;156006.84;5026349;28;20466;-78
2023/08/04 06:59:26;;;;;;;2.57;1.40;;;;;;;18.08;85.51;156009.41;5009665;28;20459;-78
2023/08/04 07:01:52;;;;;;;3.40;1.20;;;;;;;18.19;85.08;156036.75;5039930;28;20459;-78
2023/08/04 07:04:19;;;;;;;2.13;1.27;;;;;;;18.29;86.49;156061.53;5007991;28;20470;-78
2023/08/04 07:06:47;;;;;;;2.07;1.20;;;;;;;18.31;90.23;156068.06;5024876;28;20451;-78
2023/08/04 07:09:13;;;;;;;1.53;1.03;;;;;;;18.29;90.08;156061.53;5027169;28;21020;-78
2023/08/04 07:11:40;;;;;;;1.67;0.90;;;;;;;18.41;91.38;156092.78;5058045;28;20538;-78
2023/08/04 07:14:07;;;;;;;1.50;1.00;;;;;;;18.52;90.12;156122.81;5041076;28;20841;-78
2023/08/04 07:16:34;;;;;;;2.23;1.00;;;;;;;18.65;90.97;156156.66;5024342;28;20464;-78
2023/08/04 07:19:03;;;;;;;2.20;1.33;;;;;;;18.76;90.66;156184.03;5027197;28;20444;-78
2023/08/04 07:21:30;;;;;;;1.77;1.10;;;;;;;18.91;88.36;156223.09;5027011;28;20474;-78
2023/08/04 07:24:00;;;;;;;2.13;1.30;;;;;;;19.22;88.38;156303.88;5026141;28;20470;-77
2023/08/04 07:26:27;;;;;;;3.10;1.20;;;;;;;19.50;85.24;156374.34;5025562;28;20527;-78
2023/08/04 07:28:54;;;;;;;2.00;1.10;;;;;;;19.72;85.90;156431.72;5020001;28;20533;-78
2023/08/04 07:31:21;;;;;;;2.27;1.40;;;;;;;19.77;80.67;156444.75;5057737;28;21130;-78
2023/08/04 07:33:47;;;;;;;1.23;0.80;;;;;;;19.94;79.31;156490.38;5025969;28;20459;-77
2023/08/04 07:36:14;;;;;;;1.40;0.87;;;;;;;20.06;83.34;156520.38;5028527;28;20526;-78
2023/08/04 07:38:41;;;;;;;2.17;0.90;;;;;;;20.24;76.86;156567.38;5025336;28;20854;-78
2023/08/04 07:41:09;;;;;;;3.50;1.33;;;;;;;20.53;78.78;156643.03;5024038;28;20453;-78
2023/08/04 07:43:35;;;;;;;1.73;1.13;;;;;;;20.70;80.52;156684.78;5025967;28;20733;-78
2023/08/04 07:46:04;;;;;;;1.50;1.00;;;;;;;20.84;74.50;156721.28;5024452;28;20542;-79
2023/08/04 07:48:31;;;;;;;1.40;0.80;;;;;;;20.85;73.83;156723.91;5024943;28;20483;-78
2023/08/04 07:50:57;;;;;;;3.33;1.40;;;;;;;20.84;74.82;156721.28;5019896;28;20814;-78
2023/08/04 07:53:24;;;;;;;3.40;1.10;;;;;;;20.90;80.04;156738.25;5022995;28;20494;-78
2023/08/04 07:55:55;;;;;;;2.17;1.20;;;;;;;20.79;74.88;156708.22;5023907;28;20502;-78
2023/08/04 07:58:23;;;;;;;2.60;1.13;;;;;;;20.76;74.35;156700.44;5020935;28;21003;-78
2023/08/04 08:00:52;;;;;;;1.87;1.10;;;;;;;20.67;74.43;156678.25;5025481;28;20471;-78
2023/08/04 08:03:19;;;;;;;2.87;1.20;;;;;;;20.62;75.42;156666.47;5024656;28;20546;-78
2023/08/04 08:05:45;;;;;;;2.87;1.37;;;;;;;20.60;78.57;156661.28;5027018;28;20538;-78
2023/08/04 08:08:12;;;;;;;1.63;0.87;;;;;;;20.59;78.03;156658.69;5008032;28;20452;-78
2023/08/04 08:10:39;;;;;;;1.90;0.97;;;;;;;20.58;74.30;156656.06;5025848;28;21385;-78
2023/08/04 08:13:05;;;;;;;1.70;1.20;;;;;;;20.62;73.25;156666.47;5027996;28;20954;-79
2023/08/04 08:15:35;;;;;;;2.27;1.27;;;;;;;20.67;73.15;156676.94;5018193;28;21329;-78
2023/08/04 08:18:02;;;;;;;1.83;1.17;;;;;;;20.72;76.42;156689.97;4990510;28;20449;-78
2023/08/04 08:20:29;;;;;;;2.57;1.23;;;;;;;20.69;73.35;156682.16;5026375;28;20579;-78
2023/08/04 08:22:56;;;;;;;2.70;1.20;;;;;;;20.76;79.42;156700.44;5004127;28;20466;-86
2023/08/04 08:25:23;;;;;;;1.70;0.83;;;;;;;20.74;74.07;156695.19;5025092;28;20444;-86
2023/08/04 08:27:49;;;;;;;3.73;1.30;;;;;;;20.85;78.29;156725.22;5026119;28;20470;-86
2023/08/04 08:30:17;;;;;;;1.93;1.37;;;;;;;20.92;81.12;156743.47;5007870;28;20480;-86
2023/08/04 08:32:45;;;;;;;2.03;1.00;;;;;;;20.89;83.35;156734.38;5027434;28;20557;-86
2023/08/04 08:35:14;;;;;;;1.90;1.07;;;;;;;20.81;75.46;156714.75;5025019;28;20462;-86
2023/08/04 08:37:40;;;;;;;2.30;1.10;;;;;;;20.89;72.34;156734.38;5024491;28;20459;-86
2023/08/04 08:40:08;;;;;;;2.17;1.30;;;;;;;21.05;72.13;156777.38;5021191;28;20563;-86
2023/08/04 08:42:35;;;;;;;2.40;1.33;;;;;;;21.06;71.03;156778.69;5021942;28;20459;-86
2023/08/04 08:45:02;;;;;;;1.47;1.03;;;;;;;20.98;72.35;156757.81;5028899;28;20448;-86
2023/08/04 08:47:31;;;;;;;1.73;1.30;;;;;;;21.05;71.78;156776.06;5053875;28;20547;-86
2023/08/04 08:50:01;;;;;;;2.50;1.43;;;;;;;21.01;72.36;156765.66;5025309;28;20586;-87
2023/08/04 08:52:31;;;;;;;3.40;2.00;;;;;;;21.12;72.76;156794.44;5057883;28;20448;-87
2023/08/04 08:54:58;;;;;;;2.40;1.23;;;;;;;21.13;72.25;156797.00;5024465;28;20496;-85
2023/08/04 08:57:26;;;;;;;2.03;1.30;;;;;;;20.91;71.76;156740.88;5022303;28;20825;-85
2023/08/04 08:59:52;;;;;;;1.47;1.20;;;;;;;20.68;73.46;156679.56;5034350;28;20456;-85
2023/08/04 09:02:19;;;;;;;2.90;1.40;;;;;;;20.59;76.69;156658.69;5019709;28;20464;-85
2023/08/04 09:04:46;;;;;;;3.40;1.60;;;;;;;20.61;78.74;156662.59;5021299;28;20456;-85
2023/08/04 09:07:14;;;;;;;2.13;1.20;;;;;;;20.70;77.72;156686.09;5054502;28;20510;-77
2023/08/04 09:09:51;;;;;;;1.70;1.30;;;;;;;20.91;73.41;156739.56;5021353;28;20472;-79
2023/08/04 09:12:18;;;;;;;2.13;1.30;;;;;;;20.94;72.85;156748.69;5016305;28;20455;-78
2023/08/04 09:14:52;;;;;;;3.53;1.80;;;;;;;21.14;78.36;156799.63;5022520;28;20460;-78
2023/08/04 09:17:32;;;;;;;2.60;1.50;;;;;;;21.40;76.29;156866.19;5019977;28;20449;-78
2023/08/04 09:20:00;;;;;;;2.40;1.30;;;;;;;21.36;72.71;156857.09;5056564;28;20451;-78
2023/08/04 09:22:28;;;;;;;2.30;1.70;;;;;;;21.12;71.17;156795.75;5006691;28;20809;-78
2023/08/04 09:24:56;;;;;;;1.90;1.27;;;;;;;20.47;73.64;156627.34;5052831;28;20452;-78
2023/08/04 09:27:30;;;;;;;1.80;1.33;;;;;;;20.22;75.16;156562.13;5034692;28;21008;-78
2023/08/04 09:29:58;;;;;;;2.30;1.80;;;;;;;20.02;75.87;156509.91;5050379;28;20850;-78
2023/08/04 09:32:28;;;;;;;2.03;1.60;;;;;;;19.90;77.12;156479.97;5021087;28;21321;-78
2023/08/04 09:35:03;;;;;;;3.67;1.90;;;;;;;19.93;75.95;156487.78;5053511;28;20451;-79
2023/08/04 09:37:32;;;;;;;4.93;1.50;;;;;;;20.12;75.53;156536.00;5024091;28;20536;-79
2023/08/04 09:40:00;;;;;;;4.30;2.10;;;;;;;20.18;75.66;156551.66;5019107;28;20554;-78
2023/08/04 09:42:27;;;;;;;2.80;1.90;;;;;;;20.15;76.73;156543.81;5052603;28;20467;-78
2023/08/04 09:44:54;;;;;;;3.97;1.80;;;;;;;20.10;76.67;156529.47;5033923;28;20452;-78
2023/08/04 09:47:25;;;;;;;3.30;1.50;;;;;;;20.27;76.98;156575.19;5019653;28;20479;-78
2023/08/04 09:49:52;;;;;;;1.93;1.20;;;;;;;20.42;75.16;156614.31;5029631;28;20496;-78
2023/08/04 09:52:23;;;;;;;2.60;1.50;;;;;;;20.24;74.80;156566.06;5025022;28;20455;-78
2023/08/04 09:54:53;;;;;;;4.10;1.80;;;;;;;20.43;75.28;156616.94;5020955;28;20546;-78
2023/08/04 09:57:21;;;;;;;1.80;1.33;;;;;;;20.54;74.87;156644.34;5019303;28;20452;-78
2023/08/04 09:59:48;;;;;;;1.70;1.50;;;;;;;20.42;74.10;156614.31;5022417;28;20452;-79
2023/08/04 10:02:15;;;;;;;3.73;1.57;;;;;;;20.34;73.70;156592.13;5040050;28;20517;-78
2023/08/04 10:04:42;;;;;;;2.37;1.40;;;;;;;20.29;74.31;156580.41;5017384;28;20856;-78
2023/08/04 10:07:10;;;;;;;2.37;1.90;;;;;;;20.39;76.67;156606.47;5020541;28;20471;-78
2023/08/04 10:09:37;;;;;;;3.83;1.40;;;;;;;20.63;74.26;156669.09;5005721;28;20483;-79
2023/08/04 10:12:06;;;;;;;2.47;1.30;;;;;;;20.93;72.79;156744.78;5025895;28;20539;-78
2023/08/04 10:14:33;;;;;;;2.17;1.20;;;;;;;21.08;72.14;156783.97;5021054;28;20459;-78
2023/08/04 10:16:59;;;;;;;2.67;1.50;;;;;;;21.17;72.75;156807.47;5018944;28;20925;-78
2023/08/04 10:19:28;;;;;;;3.03;1.53;;;;;;;21.26;72.75;156829.66;5022523;28;20495;-79
2023/08/04 10:21:55;;;;;;;2.30;1.47;;;;;;;21.31;71.19;156842.72;5016931;28;20463;-78
2023/08/04 10:24:22;;;;;;;2.37;1.77;;;;;;;21.19;76.10;156812.69;5037857;28;20483;-79
2023/08/04 10:26:50;;;;;;;2.10;1.40;;;;;;;21.10;76.60;156789.22;5040216;28;20483;-79
2023/08/04 10:29:21;;;;;;;2.10;1.30;;;;;;;20.95;75.78;156751.31;5019498;28;20979;-79
2023/08/04 10:31:52;;;;;;;1.80;1.20;;;;;;;20.87;73.56;156729.09;5026081;28;20479;-79
2023/08/04 10:34:20;;;;;;;3.10;1.60;;;;;;;20.62;79.05;156666.47;5043101;28;20474;-79
2023/08/04 10:37:04;;;;;;;4.17;1.20;;;;;;;20.45;76.31;156620.84;5042108;28;20799;-78
2023/08/04 10:39:31;;;;;;;1.33;1.20;;;;;;;20.25;77.74;156570.00;5040597;28;20445;-79
2023/08/04 10:41:59;;;;;;;1.97;1.10;;;;;;;20.13;78.07;156537.31;5044084;28;20451;-79
2023/08/04 10:44:31;;;;;;;6.13;1.67;;;;;;;20.11;81.96;156533.41;5031240;28;20506;-79
2023/08/04 10:47:01;;;;;;;1.87;1.33;;;;;;;20.11;80.74;156532.09;5037973;28;20459;-79
2023/08/04 10:49:28;;;;;;;2.43;1.60;;;;;;;20.10;80.43;156529.47;5041575;28;21042;-79
2023/08/04 10:51:55;;;;;;;2.47;1.40;;;;;;;20.10;82.78;156530.78;5039309;28;20459;-79
2023/08/04 10:54:21;;;;;;;2.27;1.47;;;;;;;20.05;80.15;156517.75;5043723;28;20453;-79
2023/08/04 10:56:48;;;;;;;1.70;1.30;;;;;;;20.00;81.75;156506.03;5045783;28;20947;-79
2023/08/04 10:59:15;;;;;;;3.20;1.40;;;;;;;19.96;86.17;156494.31;5047840;28;20451;-79
2023/08/04 11:01:43;;;;;;;2.47;1.20;;;;;;;19.95;81.73;156493.00;5056693;28;20524;-79
2023/08/04 11:04:09;;;;;;;1.87;1.37;;;;;;;19.85;81.97;156466.94;5022116;28;20462;-78
2023/08/04 11:06:36;;;;;;;1.73;1.20;;;;;;;19.68;82.96;156422.56;5061325;28;20586;-80
2023/08/04 11:09:03;;;;;;;2.50;1.27;;;;;;;19.57;83.71;156392.56;5061962;28;20549;-80
2023/08/04 11:11:31;;;;;;;2.37;1.33;;;;;;;19.53;87.37;156383.47;5063774;28;20474;-79
2023/08/04 11:13:58;;;;;;;1.60;1.20;;;;;;;19.62;92.57;156405.66;5045061;28;20459;-78
2023/08/04 11:16:25;;;;;;;1.67;1.37;;;;;;;19.59;87.06;156397.81;5049438;28;20458;-80
2023/08/04 11:18:53;;;;;;;1.87;1.33;;;;;;;19.70;88.58;156426.47;5063202;28;20451;-79
2023/08/04 11:21:20;;;;;;;2.90;1.20;;;;;;;19.81;89.17;156455.16;5046746;28;20485;-79
2023/08/04 11:23:46;;;;;;;2.90;1.80;;;;;;;19.79;88.34;156451.28;5059973;28;20435;-79